createdAt,value
2023-02-24T00:00:41.224Z,901.05
2023-02-24T00:01:41.236Z,901.81
2023-02-24T00:02:41.276Z,901.92
2023-02-24T00:03:41.247Z,901.99
2023-02-24T00:04:41.251Z,901.41
2023-02-24T00:05:41.239Z,901.05
2023-02-24T00:06:41.260Z,900.54
2023-02-24T00:07:44.339Z,900.05
2023-02-24T00:08:41.247Z,899.57
2023-02-24T00:09:41.243Z,899.05
2023-02-24T00:10:41.240Z,899.3
2023-02-24T00:11:41.249Z,898.92
2023-02-24T00:12:41.245Z,898.55
2023-02-24T00:13:41.248Z,898.52
2023-02-24T00:14:41.261Z,898.18
2023-02-24T00:15:41.244Z,898.05
2023-02-24T00:16:41.353Z,897.89
2023-02-24T00:17:41.259Z,898.05
2023-02-24T00:18:44.028Z,898.35
2023-02-24T00:19:41.258Z,897.93
2023-02-24T00:20:41.249Z,898.39
2023-02-24T00:21:41.254Z,897.84
2023-02-24T00:22:41.260Z,898.59
2023-02-24T00:23:41.290Z,897.95
2023-02-24T00:24:41.258Z,898.32
2023-02-24T00:25:41.257Z,898.25
2023-02-24T00:26:41.265Z,898.65
2023-02-24T00:27:41.269Z,898.92
2023-02-24T00:28:41.272Z,898.74
2023-02-24T00:29:41.272Z,898.37
2023-02-24T00:30:41.312Z,898.57
2023-02-24T00:31:44.425Z,898.14
2023-02-24T00:32:41.384Z,898.67
2023-02-24T00:33:41.280Z,897.72
2023-02-24T00:34:41.342Z,897.98
2023-02-24T00:35:41.299Z,897.53
2023-02-24T00:36:41.283Z,897.11
2023-02-24T00:37:41.289Z,897.49
2023-02-24T00:38:41.295Z,896.96
2023-02-24T00:39:41.920Z,897.37
2023-02-24T00:40:41.290Z,897.23
2023-02-24T00:41:41.298Z,897.15
2023-02-24T00:42:41.295Z,897.53
2023-02-24T00:43:41.297Z,897
2023-02-24T00:44:41.327Z,896.88
2023-02-24T00:45:41.304Z,896.93
2023-02-24T00:46:41.368Z,897
2023-02-24T00:47:41.301Z,897.23
2023-02-24T00:48:41.308Z,896.76
2023-02-24T00:49:41.305Z,896.1
2023-02-24T00:50:41.313Z,895.53
2023-02-24T00:51:41.330Z,895.16
2023-02-24T00:52:41.317Z,894.83
2023-02-24T00:53:41.315Z,894.28
2023-02-24T00:54:41.325Z,894.38
2023-02-24T00:55:41.343Z,893.99
2023-02-24T00:56:41.385Z,894.51
2023-02-24T00:57:41.355Z,894.33
2023-02-24T00:58:41.336Z,894.17
2023-02-24T00:59:41.321Z,893.65
2023-02-24T01:00:41.326Z,893.84
2023-02-24T01:01:41.446Z,893.33
2023-02-24T01:02:41.341Z,893.45
2023-02-24T01:03:41.395Z,893.49
2023-02-24T01:04:41.340Z,892.79
2023-02-24T01:05:41.338Z,892.92
2023-02-24T01:06:41.343Z,892.5
2023-02-24T01:07:41.349Z,892.46
2023-02-24T01:08:41.335Z,892.23
2023-02-24T01:09:41.348Z,892.34
2023-02-24T01:10:41.404Z,891.69
2023-02-24T01:11:41.377Z,892.07
2023-02-24T01:12:41.347Z,892.41
2023-02-24T01:13:41.350Z,892.51
2023-02-24T01:14:41.385Z,892.58
2023-02-24T01:15:41.372Z,893.23
2023-02-24T01:16:41.356Z,892.46
2023-02-24T01:17:41.351Z,892.9
2023-02-24T01:18:41.362Z,892.45
2023-02-24T01:19:41.358Z,892.09
2023-02-24T01:20:41.358Z,892
2023-02-24T01:21:41.389Z,891.9
2023-02-24T01:22:41.365Z,892.08
2023-02-24T01:23:41.365Z,892.44
2023-02-24T01:24:41.367Z,892.2
2023-02-24T01:25:42.623Z,891.73
2023-02-24T01:26:41.399Z,891.55
2023-02-24T01:27:41.433Z,890.81
2023-02-24T01:28:41.363Z,890.91
2023-02-24T01:29:41.367Z,890.74
2023-02-24T01:30:41.383Z,890.64
2023-02-24T01:31:41.462Z,889.97
2023-02-24T01:32:41.568Z,890
2023-02-24T01:33:41.372Z,890.05
2023-02-24T01:34:41.386Z,889.55
2023-02-24T01:35:41.384Z,889.91
2023-02-24T01:36:41.377Z,890.21
2023-02-24T01:37:41.388Z,889.55
2023-02-24T01:38:41.389Z,889.75
2023-02-24T01:39:41.392Z,890
2023-02-24T01:40:41.396Z,889.3
2023-02-24T01:41:41.395Z,889.44
2023-02-24T01:42:41.395Z,888.85
2023-02-24T01:43:41.426Z,889.62
2023-02-24T01:44:41.392Z,889.5
2023-02-24T01:45:41.403Z,889.76
2023-02-24T01:46:41.443Z,889.74
2023-02-24T01:47:41.399Z,890.08
2023-02-24T01:48:41.407Z,889.94
2023-02-24T01:49:41.400Z,889.63
2023-02-24T01:50:41.425Z,890.05
2023-02-24T01:51:41.409Z,889.87
2023-02-24T01:52:41.405Z,889.87
2023-02-24T01:53:41.415Z,890.18
2023-02-24T01:54:41.420Z,890.16
2023-02-24T01:55:41.418Z,890.51
2023-02-24T01:56:41.413Z,890.18
2023-02-24T01:57:41.422Z,890.18
2023-02-24T01:58:41.423Z,890.24
2023-02-24T01:59:41.451Z,890.34
2023-02-24T02:00:41.420Z,890.51
2023-02-24T02:01:44.563Z,890.49
2023-02-24T02:02:41.535Z,891.14
2023-02-24T02:03:41.435Z,891.45
2023-02-24T02:04:41.433Z,891.84
2023-02-24T02:05:41.427Z,892.07
2023-02-24T02:06:41.433Z,892.2
2023-02-24T02:07:41.445Z,892.09
2023-02-24T02:08:41.447Z,891.35
2023-02-24T02:09:41.456Z,891.08
2023-02-24T02:10:41.460Z,890.46
2023-02-24T02:11:41.444Z,890.59
2023-02-24T02:12:44.860Z,890.68
2023-02-24T02:13:41.492Z,890.6
2023-02-24T02:14:41.458Z,890.37
2023-02-24T02:15:41.468Z,890.57
2023-02-24T02:16:41.449Z,890.27
2023-02-24T02:17:41.472Z,890.23
2023-02-24T02:18:41.458Z,890.55
2023-02-24T02:19:41.448Z,890.97
2023-02-24T02:20:41.478Z,891.53
2023-02-24T02:21:41.465Z,891.53
2023-02-24T02:22:41.453Z,891.66
2023-02-24T02:23:44.210Z,892.03
2023-02-24T02:24:41.480Z,892.24
2023-02-24T02:25:41.465Z,892.27
2023-02-24T02:26:41.493Z,892.24
2023-02-24T02:27:41.476Z,892.16
2023-02-24T02:28:41.467Z,891.82
2023-02-24T02:29:41.471Z,891.63
2023-02-24T02:30:41.520Z,891.93
2023-02-24T02:31:41.736Z,891.42
2023-02-24T02:32:41.593Z,891.87
2023-02-24T02:33:41.487Z,891.42
2023-02-24T02:34:44.311Z,891.52
2023-02-24T02:35:41.482Z,891.34
2023-02-24T02:36:41.516Z,891.57
2023-02-24T02:37:41.483Z,891.18
2023-02-24T02:38:41.477Z,891.66
2023-02-24T02:39:41.479Z,891.61
2023-02-24T02:40:41.537Z,892.51
2023-02-24T02:41:41.495Z,892.42
2023-02-24T02:42:41.509Z,892.26
2023-02-24T02:43:41.514Z,892.24
2023-02-24T02:44:41.485Z,892.2
2023-02-24T02:45:45.053Z,892.49
2023-02-24T02:46:41.500Z,892.63
2023-02-24T02:47:41.534Z,892.21
2023-02-24T02:48:41.506Z,892.58
2023-02-24T02:49:41.500Z,892.09
2023-02-24T02:50:41.507Z,892.45
2023-02-24T02:51:41.516Z,891.94
2023-02-24T02:52:41.506Z,891.59
2023-02-24T02:53:41.506Z,891.39
2023-02-24T02:54:41.506Z,891.64
2023-02-24T02:55:41.499Z,890.87
2023-02-24T02:56:44.494Z,891.16
2023-02-24T02:57:41.512Z,891.01
2023-02-24T02:58:41.508Z,890.85
2023-02-24T02:59:41.522Z,890.66
2023-02-24T03:00:41.549Z,890.13
2023-02-24T03:01:41.510Z,890.19
2023-02-24T03:02:41.521Z,889.81
2023-02-24T03:03:41.541Z,889.72
2023-02-24T03:04:41.551Z,889.49
2023-02-24T03:05:41.515Z,889.07
2023-02-24T03:06:41.533Z,889.59
2023-02-24T03:07:41.519Z,889.6
2023-02-24T03:08:41.519Z,889.18
2023-02-24T03:09:41.528Z,889.03
2023-02-24T03:10:41.523Z,888.84
2023-02-24T03:11:41.541Z,889.13
2023-02-24T03:12:41.540Z,888.77
2023-02-24T03:13:41.534Z,888.56
2023-02-24T03:14:41.536Z,888.46
2023-02-24T03:15:41.538Z,888.22
2023-02-24T03:16:41.633Z,888.49
2023-02-24T03:17:41.600Z,888.17
2023-02-24T03:18:41.558Z,888.33
2023-02-24T03:19:41.567Z,887.94
2023-02-24T03:20:41.537Z,887.56
2023-02-24T03:21:41.552Z,887.27
2023-02-24T03:22:41.550Z,887.02
2023-02-24T03:23:41.554Z,887.45
2023-02-24T03:24:41.564Z,887.23
2023-02-24T03:25:41.548Z,887.34
2023-02-24T03:26:41.566Z,887.29
2023-02-24T03:27:41.562Z,887.05
2023-02-24T03:28:41.552Z,886.4
2023-02-24T03:29:41.611Z,886.49
2023-02-24T03:30:41.596Z,886.1
2023-02-24T03:31:41.674Z,885.85
2023-02-24T03:32:41.689Z,885.56
2023-02-24T03:33:41.566Z,885.6
2023-02-24T03:34:41.563Z,885.12
2023-02-24T03:35:41.593Z,885.03
2023-02-24T03:36:41.575Z,884.45
2023-02-24T03:37:41.575Z,884.75
2023-02-24T03:38:41.574Z,884.54
2023-02-24T03:39:41.576Z,884.48
2023-02-24T03:40:41.574Z,884.17
2023-02-24T03:41:41.582Z,883.66
2023-02-24T03:42:41.584Z,883.3
2023-02-24T03:43:41.588Z,882.23
2023-02-24T03:44:41.595Z,881.5
2023-02-24T03:45:41.633Z,880.66
2023-02-24T03:46:41.584Z,880.16
2023-02-24T03:47:41.596Z,879.9
2023-02-24T03:48:41.582Z,880.17
2023-02-24T03:49:41.588Z,880.06
2023-02-24T03:50:41.588Z,880.18
2023-02-24T03:51:41.620Z,879.7
2023-02-24T03:52:41.596Z,878.94
2023-02-24T03:53:41.592Z,878.24
2023-02-24T03:54:41.596Z,877.9
2023-02-24T03:55:41.605Z,877.51
2023-02-24T03:56:41.600Z,877.26
2023-02-24T03:57:41.594Z,877.28
2023-02-24T03:58:41.607Z,876.55
2023-02-24T03:59:41.607Z,876.93
2023-02-24T04:00:41.610Z,876.36
2023-02-24T04:01:41.602Z,875.96
2023-02-24T04:02:41.678Z,876.35
2023-02-24T04:03:41.616Z,876.29
2023-02-24T04:04:41.706Z,875.65
2023-02-24T04:05:41.608Z,875.61
2023-02-24T04:06:41.615Z,875.83
2023-02-24T04:07:41.643Z,875.79
2023-02-24T04:08:41.622Z,875.52
2023-02-24T04:09:41.621Z,875
2023-02-24T04:10:41.622Z,875.13
2023-02-24T04:11:41.618Z,874.87
2023-02-24T04:12:41.656Z,875.21
2023-02-24T04:13:41.636Z,875.23
2023-02-24T04:14:41.634Z,875.31
2023-02-24T04:15:41.660Z,875.48
2023-02-24T04:16:41.668Z,875.05
2023-02-24T04:17:41.635Z,874.55
2023-02-24T04:18:41.777Z,874.48
2023-02-24T04:19:41.637Z,873.5
2023-02-24T04:20:41.639Z,873.02
2023-02-24T04:21:41.632Z,872.07
2023-02-24T04:22:41.632Z,870.75
2023-02-24T04:23:41.672Z,870.22
2023-02-24T04:24:41.656Z,869.99
2023-02-24T04:25:41.650Z,869.37
2023-02-24T04:26:41.652Z,869.1
2023-02-24T04:27:41.642Z,868.07
2023-02-24T04:28:41.665Z,867.25
2023-02-24T04:29:41.651Z,866.29
2023-02-24T04:30:41.811Z,865.48
2023-02-24T04:31:41.824Z,865.49
2023-02-24T04:32:41.684Z,865.5
2023-02-24T04:33:41.666Z,864.93
2023-02-24T04:34:41.714Z,865.45
2023-02-24T04:35:41.662Z,865.31
2023-02-24T04:36:41.662Z,864.94
2023-02-24T04:37:41.664Z,865.3
2023-02-24T04:38:41.667Z,864.26
2023-02-24T04:39:44.480Z,864.07
2023-02-24T04:40:41.663Z,864.07
2023-02-24T04:41:41.671Z,863.38
2023-02-24T04:42:41.662Z,863.2
2023-02-24T04:43:41.664Z,862.5
2023-02-24T04:44:41.684Z,861.54
2023-02-24T04:45:41.682Z,861.34
2023-02-24T04:46:41.743Z,861.15
2023-02-24T04:47:41.677Z,860.19
2023-02-24T04:48:41.675Z,860.11
2023-02-24T04:49:41.886Z,860.08
2023-02-24T04:50:44.537Z,859.41
2023-02-24T04:51:41.692Z,859.09
2023-02-24T04:52:41.695Z,858.8
2023-02-24T04:53:41.687Z,858.58
2023-02-24T04:54:41.688Z,857.89
2023-02-24T04:55:41.709Z,856.99
2023-02-24T04:56:41.692Z,856.69
2023-02-24T04:57:41.688Z,856.52
2023-02-24T04:58:41.690Z,856.03
2023-02-24T04:59:41.694Z,856.48
2023-02-24T05:00:41.719Z,855.77
2023-02-24T05:01:45.074Z,856.09
2023-02-24T05:02:41.696Z,855.92
2023-02-24T05:03:41.728Z,856.03
2023-02-24T05:04:41.739Z,855.7
2023-02-24T05:05:41.717Z,855.98
2023-02-24T05:06:41.706Z,855.72
2023-02-24T05:07:41.716Z,856.3
2023-02-24T05:08:41.714Z,856.3
2023-02-24T05:09:41.713Z,855.55
2023-02-24T05:10:41.727Z,854.94
2023-02-24T05:11:41.733Z,854.15
2023-02-24T05:12:44.469Z,853.68
2023-02-24T05:13:41.726Z,853.02
2023-02-24T05:14:41.721Z,852.45
2023-02-24T05:15:41.785Z,852.17
2023-02-24T05:16:41.724Z,852.56
2023-02-24T05:17:41.722Z,852.23
2023-02-24T05:18:41.732Z,851.9
2023-02-24T05:19:41.729Z,852.41
2023-02-24T05:20:41.729Z,852.12
2023-02-24T05:21:41.742Z,852.69
2023-02-24T05:22:41.737Z,852.96
2023-02-24T05:23:44.648Z,852.88
2023-02-24T05:24:41.739Z,853.28
2023-02-24T05:25:41.734Z,852.46
2023-02-24T05:26:41.990Z,852.21
2023-02-24T05:27:41.769Z,851.64
2023-02-24T05:28:41.739Z,851.93
2023-02-24T05:29:41.746Z,851.9
2023-02-24T05:30:41.817Z,851.7
2023-02-24T05:31:41.891Z,851.86
2023-02-24T05:32:41.780Z,851.97
2023-02-24T05:33:41.746Z,851.67
2023-02-24T05:34:41.749Z,851.58
2023-02-24T05:35:41.910Z,851.33
2023-02-24T05:36:41.775Z,850.73
2023-02-24T05:37:41.771Z,850.77
2023-02-24T05:38:41.764Z,850.85
2023-02-24T05:39:41.761Z,850.96
2023-02-24T05:40:41.789Z,849.87
2023-02-24T05:41:41.780Z,850.26
2023-02-24T05:42:41.769Z,849.91
2023-02-24T05:43:41.813Z,850.02
2023-02-24T05:44:41.778Z,849.9
2023-02-24T05:45:41.760Z,849.61
2023-02-24T05:46:41.785Z,849.54
2023-02-24T05:47:41.762Z,849.44
2023-02-24T05:48:41.764Z,849.13
2023-02-24T05:49:41.766Z,849.24
2023-02-24T05:50:41.782Z,849.52
2023-02-24T05:51:41.771Z,849.34
2023-02-24T05:52:41.767Z,849.3
2023-02-24T05:53:41.781Z,849.86
2023-02-24T05:54:41.795Z,850.14
2023-02-24T05:55:41.776Z,849.75
2023-02-24T05:56:41.780Z,849.89
2023-02-24T05:57:41.796Z,849.96
2023-02-24T05:58:41.785Z,849.95
2023-02-24T05:59:41.810Z,850.13
2023-02-24T06:00:41.781Z,849.37
2023-02-24T06:01:41.902Z,848.98
2023-02-24T06:02:41.813Z,848.27
2023-02-24T06:03:41.791Z,847.87
2023-02-24T06:04:41.794Z,847.17
2023-02-24T06:05:41.787Z,846.19
2023-02-24T06:06:41.802Z,846.07
2023-02-24T06:07:41.844Z,845.4
2023-02-24T06:08:41.798Z,844.46
2023-02-24T06:09:41.798Z,844.64
2023-02-24T06:10:41.812Z,843.82
2023-02-24T06:11:41.848Z,843.12
2023-02-24T06:12:41.860Z,842.85
2023-02-24T06:13:41.820Z,842.27
2023-02-24T06:14:41.816Z,842.81
2023-02-24T06:15:41.831Z,842.45
2023-02-24T06:16:41.862Z,842.53
2023-02-24T06:17:41.826Z,842.58
2023-02-24T06:18:41.826Z,842.81
2023-02-24T06:19:41.806Z,843.58
2023-02-24T06:20:41.817Z,843.06
2023-02-24T06:21:41.817Z,843.5
2023-02-24T06:22:41.840Z,843.48
2023-02-24T06:23:41.812Z,842.97
2023-02-24T06:24:41.815Z,842.27
2023-02-24T06:25:41.817Z,841.89
2023-02-24T06:26:41.835Z,841.33
2023-02-24T06:27:41.858Z,840.75
2023-02-24T06:28:41.858Z,840.42
2023-02-24T06:29:41.828Z,840.52
2023-02-24T06:30:41.890Z,840.1
2023-02-24T06:31:41.948Z,839.4
2023-02-24T06:32:42.005Z,839.43
2023-02-24T06:33:41.839Z,839.35
2023-02-24T06:34:41.853Z,838.65
2023-02-24T06:35:41.852Z,838.65
2023-02-24T06:36:41.842Z,838.74
2023-02-24T06:37:41.899Z,838.61
2023-02-24T06:38:41.846Z,838.31
2023-02-24T06:39:41.851Z,838.65
2023-02-24T06:40:41.871Z,839.21
2023-02-24T06:41:41.868Z,839.72
2023-02-24T06:42:41.879Z,839.91
2023-02-24T06:43:41.869Z,840.22
2023-02-24T06:44:41.928Z,840.79
2023-02-24T06:45:41.889Z,841.34
2023-02-24T06:46:41.858Z,841.92
2023-02-24T06:47:41.935Z,841.18
2023-02-24T06:48:41.853Z,841.22
2023-02-24T06:49:41.863Z,841.76
2023-02-24T06:50:42.258Z,842.51
2023-02-24T06:51:41.867Z,842.37
2023-02-24T06:52:41.897Z,842.49
2023-02-24T06:53:41.863Z,842.79
2023-02-24T06:54:41.889Z,842.58
2023-02-24T06:55:41.880Z,842.72
2023-02-24T06:56:41.872Z,843.16
2023-02-24T06:57:41.998Z,843.97
2023-02-24T06:58:41.882Z,844.3
2023-02-24T06:59:41.878Z,844.94
2023-02-24T07:00:41.873Z,845.35
2023-02-24T07:01:41.916Z,845.96
2023-02-24T07:02:41.944Z,846.22
2023-02-24T07:03:41.909Z,846.89
2023-02-24T07:04:41.983Z,847.08
2023-02-24T07:05:41.885Z,847.4
2023-02-24T07:06:44.977Z,848.56
2023-02-24T07:07:41.910Z,848.18
2023-02-24T07:08:41.892Z,847.19
2023-02-24T07:09:41.901Z,847.03
2023-02-24T07:10:41.902Z,847.28
2023-02-24T07:11:41.899Z,847.02
2023-02-24T07:12:41.924Z,847.42
2023-02-24T07:13:41.898Z,848.39
2023-02-24T07:14:41.899Z,847.16
2023-02-24T07:15:41.901Z,846.86
2023-02-24T07:16:41.942Z,846.76
2023-02-24T07:17:43.132Z,847.15
2023-02-24T07:18:41.921Z,847.82
2023-02-24T07:19:41.949Z,847.83
2023-02-24T07:20:41.907Z,848.52
2023-02-24T07:21:41.914Z,848.04
2023-02-24T07:22:41.911Z,848.16
2023-02-24T07:23:41.946Z,849.26
2023-02-24T07:24:41.935Z,849
2023-02-24T07:25:41.941Z,849.34
2023-02-24T07:26:41.917Z,849.49
2023-02-24T07:27:41.925Z,849.02
2023-02-24T07:28:44.823Z,849.2
2023-02-24T07:29:41.951Z,850.07
2023-02-24T07:30:42.027Z,850.01
2023-02-24T07:31:42.108Z,850.22
2023-02-24T07:32:41.979Z,850.58
2023-02-24T07:33:41.933Z,851.02
2023-02-24T07:34:41.931Z,851.14
2023-02-24T07:35:41.955Z,852.24
2023-02-24T07:36:41.932Z,853.17
2023-02-24T07:37:41.937Z,853.86
2023-02-24T07:38:41.932Z,854.1
2023-02-24T07:39:44.852Z,854.59
2023-02-24T07:40:41.940Z,855.19
2023-02-24T07:41:41.946Z,855.19
2023-02-24T07:42:41.933Z,855.59
2023-02-24T07:43:41.934Z,855.64
2023-02-24T07:44:41.938Z,856.29
2023-02-24T07:45:42.035Z,856.29
2023-02-24T07:46:41.943Z,856.58
2023-02-24T07:47:41.952Z,856.6
2023-02-24T07:48:41.949Z,856.61
2023-02-24T07:49:41.951Z,857.29
2023-02-24T07:50:42.099Z,857.46
2023-02-24T07:51:42.096Z,857.99
2023-02-24T07:52:41.953Z,858.79
2023-02-24T07:53:41.978Z,859.61
2023-02-24T07:54:41.973Z,860.12
2023-02-24T07:55:41.964Z,859.88
2023-02-24T07:56:41.959Z,860.4
2023-02-24T07:57:42.029Z,860.37
2023-02-24T07:58:41.967Z,860.42
2023-02-24T07:59:41.965Z,861.16
2023-02-24T08:00:41.968Z,861.57
2023-02-24T08:01:41.958Z,862.77
2023-02-24T08:02:42.125Z,863.31
2023-02-24T08:03:41.965Z,863.94
2023-02-24T08:04:41.972Z,864.61
2023-02-24T08:05:42.083Z,865.7
2023-02-24T08:06:41.986Z,866.53
2023-02-24T08:07:41.999Z,866.78
2023-02-24T08:08:41.973Z,867.7
2023-02-24T08:09:41.974Z,868.09
2023-02-24T08:10:41.976Z,868.42
2023-02-24T08:11:41.975Z,868.37
2023-02-24T08:12:41.984Z,868.63
2023-02-24T08:13:41.989Z,869.23
2023-02-24T08:14:41.984Z,869.35
2023-02-24T08:15:42.005Z,868.62
2023-02-24T08:16:41.987Z,868.85
2023-02-24T08:17:41.980Z,869.08
2023-02-24T08:18:41.994Z,869.61
2023-02-24T08:19:41.994Z,870.1
2023-02-24T08:20:41.991Z,870.24
2023-02-24T08:21:42.010Z,870.57
2023-02-24T08:22:41.988Z,871.37
2023-02-24T08:23:42.107Z,871.99
2023-02-24T08:24:42.001Z,873.15
2023-02-24T08:25:41.996Z,874.3
2023-02-24T08:26:42.042Z,874.73
2023-02-24T08:27:42.001Z,875.1
2023-02-24T08:28:42.003Z,875.24
2023-02-24T08:29:42.008Z,875.13
2023-02-24T08:30:42.033Z,874.84
2023-02-24T08:31:42.094Z,874.77
2023-02-24T08:32:42.119Z,875.56
2023-02-24T08:33:42.020Z,875.82
2023-02-24T08:34:42.017Z,876.43
2023-02-24T08:35:42.031Z,876.59
2023-02-24T08:36:42.023Z,876.61
2023-02-24T08:37:42.018Z,876.59
2023-02-24T08:38:42.432Z,876.7
2023-02-24T08:39:42.040Z,876.3
2023-02-24T08:40:42.031Z,876.43
2023-02-24T08:41:42.017Z,876.57
2023-02-24T08:42:42.023Z,876.57
2023-02-24T08:43:42.031Z,876.91
2023-02-24T08:44:42.494Z,877.19
2023-02-24T08:45:42.031Z,877.8
2023-02-24T08:46:42.051Z,878.81
2023-02-24T08:47:42.048Z,879.82
2023-02-24T08:48:42.043Z,880.34
2023-02-24T08:49:42.041Z,881.44
2023-02-24T08:50:42.038Z,882.11
2023-02-24T08:51:42.049Z,883.12
2023-02-24T08:52:42.061Z,884.05
2023-02-24T08:53:42.075Z,884.92
2023-02-24T08:54:42.055Z,885.16
2023-02-24T08:55:42.077Z,886
2023-02-24T08:56:42.050Z,886.93
2023-02-24T08:57:42.053Z,887.33
2023-02-24T08:58:42.069Z,887.53
2023-02-24T08:59:42.074Z,888.69
2023-02-24T09:00:42.110Z,889.4
2023-02-24T09:01:42.061Z,889.87
2023-02-24T09:02:42.063Z,890.04
2023-02-24T09:03:42.073Z,891.12
2023-02-24T09:04:42.114Z,891.75
2023-02-24T09:05:42.072Z,892.13
2023-02-24T09:06:42.065Z,892.43
2023-02-24T09:07:42.121Z,893.19
2023-02-24T09:08:42.078Z,893.77
2023-02-24T09:09:42.106Z,895.21
2023-02-24T09:10:42.089Z,895.3
2023-02-24T09:11:42.221Z,896.42
2023-02-24T09:12:42.078Z,896.68
2023-02-24T09:13:42.076Z,897.15
2023-02-24T09:14:42.090Z,897.72
2023-02-24T09:15:42.085Z,897.88
2023-02-24T09:16:42.155Z,898.44
2023-02-24T09:17:42.081Z,899.08
2023-02-24T09:18:42.091Z,899.43
2023-02-24T09:19:42.084Z,900.88
2023-02-24T09:20:42.094Z,901.73
2023-02-24T09:21:42.099Z,901.67
2023-02-24T09:22:42.112Z,902.43
2023-02-24T09:23:42.099Z,902.63
2023-02-24T09:24:42.100Z,902.69
2023-02-24T09:25:42.103Z,903.44
2023-02-24T09:26:42.105Z,903.8
2023-02-24T09:27:42.121Z,903.94
2023-02-24T09:28:42.165Z,904.02
2023-02-24T09:29:42.098Z,904.23
2023-02-24T09:30:42.130Z,904.97
2023-02-24T09:31:42.231Z,906.39
2023-02-24T09:32:42.250Z,906.46
2023-02-24T09:33:44.949Z,907.61
2023-02-24T09:34:42.107Z,908.24
2023-02-24T09:35:42.158Z,908.32
2023-02-24T09:36:42.683Z,909.09
2023-02-24T09:37:42.114Z,909.71
2023-02-24T09:38:42.115Z,911.05
2023-02-24T09:39:42.120Z,912.6
2023-02-24T09:40:42.123Z,913.99
2023-02-24T09:41:42.125Z,914.66
2023-02-24T09:42:42.134Z,915.34
2023-02-24T09:43:42.169Z,916.86
2023-02-24T09:44:45.192Z,917.07
2023-02-24T09:45:42.338Z,917.62
2023-02-24T09:46:42.250Z,918.44
2023-02-24T09:47:42.128Z,919.52
2023-02-24T09:48:42.154Z,920.04
2023-02-24T09:49:42.137Z,920.84
2023-02-24T09:51:01.230Z,921.61
2023-02-24T09:51:42.160Z,922.74
2023-02-24T09:52:42.180Z,923.65
2023-02-24T09:53:42.142Z,924.91
2023-02-24T09:54:42.147Z,926.42
2023-02-24T09:55:44.916Z,927.32
2023-02-24T09:56:42.144Z,928.29
2023-02-24T09:57:42.284Z,930.19
2023-02-24T09:58:44.191Z,931.74
2023-02-24T09:59:42.178Z,933.21
2023-02-24T10:00:42.148Z,934.76
2023-02-24T10:01:42.155Z,936.11
2023-02-24T10:02:42.170Z,936.9
2023-02-24T10:03:42.178Z,937.78
2023-02-24T10:04:42.164Z,937.76
2023-02-24T10:05:42.155Z,937.83
2023-02-24T10:06:45.170Z,939.07
2023-02-24T10:07:42.169Z,939.9
2023-02-24T10:08:42.167Z,941.02
2023-02-24T10:09:42.182Z,942.23
2023-02-24T10:10:42.191Z,943.26
2023-02-24T10:11:42.168Z,943.78
2023-02-24T10:12:42.178Z,944.52
2023-02-24T10:13:42.173Z,944.77
2023-02-24T10:14:43.910Z,945.46
2023-02-24T10:15:42.221Z,946.49
2023-02-24T10:16:42.306Z,947.66
2023-02-24T10:17:42.273Z,948.59
2023-02-24T10:18:42.195Z,949.59
2023-02-24T10:19:42.186Z,950.22
2023-02-24T10:20:42.222Z,951.43
2023-02-24T10:21:42.185Z,952.65
2023-02-24T10:22:42.184Z,954.85
2023-02-24T10:23:43.337Z,957.16
2023-02-24T10:24:42.198Z,958.81
2023-02-24T10:25:42.197Z,959.55
2023-02-24T10:26:48.402Z,960.82
2023-02-24T10:27:42.205Z,963.7
2023-02-24T10:28:42.197Z,966.23
2023-02-24T10:29:42.201Z,968.07
2023-02-24T10:30:42.314Z,969.44
2023-02-24T10:31:42.514Z,971.29
2023-02-24T10:32:42.286Z,973.4
2023-02-24T10:33:42.204Z,975.64
2023-02-24T10:34:42.210Z,977.81
2023-02-24T10:35:42.214Z,979.8
2023-02-24T10:36:42.208Z,980.74
2023-02-24T10:37:42.210Z,982.25
2023-02-24T10:38:42.214Z,982.96
2023-02-24T10:39:42.213Z,983.04
2023-02-24T10:40:42.214Z,982.76
2023-02-24T10:41:42.225Z,982.98
2023-02-24T10:42:42.223Z,982.61
2023-02-24T10:43:42.253Z,982.26
2023-02-24T10:44:44.715Z,980.99
2023-02-24T10:45:42.230Z,980.14
2023-02-24T10:46:43.218Z,979.22
2023-02-24T10:47:42.261Z,979.35
2023-02-24T10:48:42.731Z,979.73
2023-02-24T10:49:42.229Z,980.17
2023-02-24T10:50:53.995Z,980.45
2023-02-24T10:51:42.234Z,979.92
2023-02-24T10:52:42.237Z,979.61
2023-02-24T10:53:42.243Z,978.84
2023-02-24T10:54:42.278Z,977.77
2023-02-24T10:55:42.238Z,976.99
2023-02-24T10:56:42.246Z,976.88
2023-02-24T10:57:50.392Z,977.17
2023-02-24T10:58:42.252Z,977.12
2023-02-24T10:59:42.305Z,976.31
2023-02-24T11:00:42.264Z,975.7
2023-02-24T11:01:42.287Z,976.26
2023-02-24T11:02:42.264Z,977.46
2023-02-24T11:03:42.362Z,979.01
2023-02-24T11:04:42.263Z,980.26
2023-02-24T11:05:42.251Z,981.61
2023-02-24T11:06:42.424Z,984.33
2023-02-24T11:07:42.268Z,985.78
2023-02-24T11:08:42.262Z,985.78
2023-02-24T11:09:42.267Z,986.38
2023-02-24T11:10:42.279Z,986.97
2023-02-24T11:11:42.270Z,987.3
2023-02-24T11:12:42.272Z,987.87
2023-02-24T11:13:42.266Z,989.46
2023-02-24T11:14:42.290Z,990.77
2023-02-24T11:15:44.146Z,993.31
2023-02-24T11:16:42.284Z,996.33
2023-02-24T11:17:42.318Z,999.06
2023-02-24T11:18:42.278Z,1003.76
2023-02-24T11:19:42.322Z,1006.42
2023-02-24T11:20:48.829Z,1008.9
2023-02-24T11:21:42.847Z,1010.92
2023-02-24T11:22:42.293Z,1011.96
2023-02-24T11:23:42.291Z,1011.43
2023-02-24T11:24:42.311Z,1011.21
2023-02-24T11:25:42.293Z,1010.79
2023-02-24T11:26:42.290Z,1010.02
2023-02-24T11:27:42.296Z,1008.83
2023-02-24T11:28:42.289Z,1006.48
2023-02-24T11:29:42.323Z,1004.66
2023-02-24T11:30:42.437Z,1002.18
2023-02-24T11:31:42.499Z,1000.24
2023-02-24T11:32:42.328Z,998.36
2023-02-24T11:33:42.303Z,996.61
2023-02-24T11:34:42.328Z,995.14
2023-02-24T11:35:42.329Z,993.66
2023-02-24T11:36:42.304Z,992.4
2023-02-24T11:37:43.307Z,991.48
2023-02-24T11:38:42.307Z,990.3
2023-02-24T11:39:42.333Z,989.48
2023-02-24T11:40:42.317Z,988.08
2023-02-24T11:41:42.310Z,987.21
2023-02-24T11:42:42.314Z,986.34
2023-02-24T11:43:42.368Z,986.22
2023-02-24T11:44:42.350Z,985.74
2023-02-24T11:45:42.334Z,985.52
2023-02-24T11:46:42.405Z,985.72
2023-02-24T11:47:42.337Z,986.35
2023-02-24T11:48:42.328Z,987.01
2023-02-24T11:49:42.365Z,987.35
2023-02-24T11:50:42.337Z,987.61
2023-02-24T11:51:42.351Z,988.75
2023-02-24T11:52:42.335Z,990.06
2023-02-24T11:53:42.331Z,990.5
2023-02-24T11:54:42.359Z,992.01
2023-02-24T11:55:42.342Z,993.29
2023-02-24T11:56:42.345Z,994.6
2023-02-24T11:57:42.357Z,995.8
2023-02-24T11:58:42.338Z,995.28
2023-02-24T11:59:42.433Z,994.36
2023-02-24T12:00:46.950Z,993.42
2023-02-24T12:01:42.351Z,992.16
2023-02-24T12:02:42.352Z,990.9
2023-02-24T12:03:42.358Z,990.29
2023-02-24T12:04:42.376Z,990.1
2023-02-24T12:05:42.392Z,990.34
2023-02-24T12:06:42.364Z,991.07
2023-02-24T12:07:42.401Z,991.93
2023-02-24T12:08:42.376Z,993.49
2023-02-24T12:09:42.390Z,994.74
2023-02-24T12:10:42.367Z,997.78
2023-02-24T12:11:45.113Z,999.59
2023-02-24T12:12:42.382Z,1001.36
2023-02-24T12:13:42.366Z,1003.91
2023-02-24T12:14:42.393Z,1006.59
2023-02-24T12:15:42.375Z,1008.85
2023-02-24T12:16:42.440Z,1009.97
2023-02-24T12:17:42.376Z,1010.51
2023-02-24T12:18:42.373Z,1011.12
2023-02-24T12:19:42.409Z,1011.58
2023-02-24T12:20:42.384Z,1012.64
2023-02-24T12:21:42.394Z,1014.94
2023-02-24T12:22:48.564Z,1018.43
2023-02-24T12:23:42.388Z,1020.46
2023-02-24T12:24:42.411Z,1021.7
2023-02-24T12:25:42.384Z,1023.97
2023-02-24T12:26:42.395Z,1026.91
2023-02-24T12:27:42.432Z,1029.88
2023-02-24T12:28:42.397Z,1032.92
2023-02-24T12:29:42.527Z,1035.66
2023-02-24T12:30:42.456Z,1037.41